sensor_id;sensor_type;location;lat;lon;timestamp;P1;durP1;ratioP1;P2;durP2;ratioP2
39176;SDS011;24904;52.208;21.192;2023-04-01T00:02:15;16.30;;;9.40;;
39176;SDS011;24904;52.208;21.192;2023-04-01T00:07:20;14.00;;;8.60;;
39176;SDS011;24904;52.208;21.192;2023-04-01T00:12:25;14.30;;;9.80;;
39176;SDS011;24904;52.208;21.192;2023-04-01T00:17:30;15.70;;;8.60;;
39176;SDS011;24904;52.208;21.192;2023-04-01T00:22:35;14.30;;;9.20;;
39176;SDS011;24904;52.208;21.192;2023-04-01T00:27:40;18.10;;;9.90;;
39176;SDS011;24904;52.208;21.192;2023-04-01T00:38:25;13.60;;;9.60;;
39176;SDS011;24904;52.208;21.192;2023-04-01T00:43:30;17.60;;;9.60;;
39176;SDS011;24904;52.208;21.192;2023-04-01T00:48:38;13.60;;;8.60;;
39176;SDS011;24904;52.208;21.192;2023-04-01T00:53:51;17.80;;;10.00;;
39176;SDS011;24904;52.208;21.192;2023-04-01T00:58:59;17.70;;;9.50;;
39176;SDS011;24904;52.208;21.192;2023-04-01T01:04:20;16.80;;;9.50;;
39176;SDS011;24904;52.208;21.192;2023-04-01T01:09:30;21.20;;;10.50;;
39176;SDS011;24904;52.208;21.192;2023-04-01T01:14:45;16.10;;;10.30;;
39176;SDS011;24904;52.208;21.192;2023-04-01T01:20:03;17.40;;;10.30;;
39176;SDS011;24904;52.208;21.192;2023-04-01T01:25:33;15.30;;;10.40;;
39176;SDS011;24904;52.208;21.192;2023-04-01T01:30:52;17.30;;;10.00;;
39176;SDS011;24904;52.208;21.192;2023-04-01T01:36:03;20.40;;;10.40;;
39176;SDS011;24904;52.208;21.192;2023-04-01T01:41:12;17.70;;;10.60;;
39176;SDS011;24904;52.208;21.192;2023-04-01T01:46:20;17.20;;;11.00;;
39176;SDS011;24904;52.208;21.192;2023-04-01T01:51:28;19.00;;;10.80;;
39176;SDS011;24904;52.208;21.192;2023-04-01T01:56:36;20.30;;;10.40;;
39176;SDS011;24904;52.208;21.192;2023-04-01T02:01:42;19.40;;;10.50;;
39176;SDS011;24904;52.208;21.192;2023-04-01T02:06:52;15.10;;;9.90;;
39176;SDS011;24904;52.208;21.192;2023-04-01T02:12:00;21.20;;;10.40;;
39176;SDS011;24904;52.208;21.192;2023-04-01T02:17:12;19.80;;;11.10;;
39176;SDS011;24904;52.208;21.192;2023-04-01T02:22:20;17.30;;;10.20;;
39176;SDS011;24904;52.208;21.192;2023-04-01T02:27:28;19.60;;;10.90;;
39176;SDS011;24904;52.208;21.192;2023-04-01T02:32:35;19.90;;;11.30;;
39176;SDS011;24904;52.208;21.192;2023-04-01T02:37:42;14.80;;;12.60;;
39176;SDS011;24904;52.208;21.192;2023-04-01T02:42:50;19.30;;;11.00;;
39176;SDS011;24904;52.208;21.192;2023-04-01T02:47:55;18.90;;;11.50;;
39176;SDS011;24904;52.208;21.192;2023-04-01T02:53:00;18.40;;;12.00;;
39176;SDS011;24904;52.208;21.192;2023-04-01T02:58:08;24.90;;;12.50;;
39176;SDS011;24904;52.208;21.192;2023-04-01T03:03:13;21.40;;;12.20;;
39176;SDS011;24904;52.208;21.192;2023-04-01T03:08:18;19.40;;;12.80;;
39176;SDS011;24904;52.208;21.192;2023-04-01T03:13:23;23.30;;;12.90;;
39176;SDS011;24904;52.208;21.192;2023-04-01T03:18:28;27.10;;;13.90;;
39176;SDS011;24904;52.208;21.192;2023-04-01T03:23:33;20.70;;;13.30;;
39176;SDS011;24904;52.208;21.192;2023-04-01T03:28:38;21.80;;;14.10;;
39176;SDS011;24904;52.208;21.192;2023-04-01T03:33:43;20.90;;;15.20;;
39176;SDS011;24904;52.208;21.192;2023-04-01T03:38:48;19.70;;;14.20;;
39176;SDS011;24904;52.208;21.192;2023-04-01T03:43:56;24.60;;;15.30;;
39176;SDS011;24904;52.208;21.192;2023-04-01T03:49:01;24.70;;;15.40;;
39176;SDS011;24904;52.208;21.192;2023-04-01T03:54:13;21.60;;;15.60;;
39176;SDS011;24904;52.208;21.192;2023-04-01T03:59:19;24.40;;;16.80;;
39176;SDS011;24904;52.208;21.192;2023-04-01T04:04:24;22.90;;;15.80;;
39176;SDS011;24904;52.208;21.192;2023-04-01T04:09:31;18.20;;;12.20;;
39176;SDS011;24904;52.208;21.192;2023-04-01T04:14:36;28.00;;;16.40;;
39176;SDS011;24904;52.208;21.192;2023-04-01T04:20:18;26.00;;;17.10;;
39176;SDS011;24904;52.208;21.192;2023-04-01T04:25:22;23.30;;;15.30;;
39176;SDS011;24904;52.208;21.192;2023-04-01T04:30:25;23.60;;;16.10;;
39176;SDS011;24904;52.208;21.192;2023-04-01T04:35:28;22.30;;;15.90;;
39176;SDS011;24904;52.208;21.192;2023-04-01T04:40:31;26.20;;;16.10;;
39176;SDS011;24904;52.208;21.192;2023-04-01T04:45:34;21.40;;;15.00;;
39176;SDS011;24904;52.208;21.192;2023-04-01T04:50:39;21.90;;;16.00;;
39176;SDS011;24904;52.208;21.192;2023-04-01T04:55:45;21.70;;;15.20;;
39176;SDS011;24904;52.208;21.192;2023-04-01T05:00:57;22.40;;;14.50;;
39176;SDS011;24904;52.208;21.192;2023-04-01T05:06:04;26.20;;;16.10;;
39176;SDS011;24904;52.208;21.192;2023-04-01T05:11:10;24.20;;;14.90;;
39176;SDS011;24904;52.208;21.192;2023-04-01T05:16:17;21.40;;;15.10;;
39176;SDS011;24904;52.208;21.192;2023-04-01T05:21:21;18.80;;;13.90;;
39176;SDS011;24904;52.208;21.192;2023-04-01T05:26:25;21.00;;;14.30;;
39176;SDS011;24904;52.208;21.192;2023-04-01T05:31:28;18.60;;;14.50;;
39176;SDS011;24904;52.208;21.192;2023-04-01T05:36:32;17.60;;;12.50;;
39176;SDS011;24904;52.208;21.192;2023-04-01T05:41:37;17.00;;;11.50;;
39176;SDS011;24904;52.208;21.192;2023-04-01T05:46:42;18.20;;;11.90;;
39176;SDS011;24904;52.208;21.192;2023-04-01T05:51:56;18.70;;;12.00;;
39176;SDS011;24904;52.208;21.192;2023-04-01T05:57:00;14.30;;;11.20;;
39176;SDS011;24904;52.208;21.192;2023-04-01T06:02:03;15.60;;;10.70;;
39176;SDS011;24904;52.208;21.192;2023-04-01T06:07:11;15.10;;;10.50;;
39176;SDS011;24904;52.208;21.192;2023-04-01T06:12:38;16.60;;;10.50;;
39176;SDS011;24904;52.208;21.192;2023-04-01T06:23:35;17.20;;;10.10;;
39176;SDS011;24904;52.208;21.192;2023-04-01T06:28:59;11.60;;;8.00;;
39176;SDS011;24904;52.208;21.192;2023-04-01T06:34:27;16.00;;;9.70;;
39176;SDS011;24904;52.208;21.192;2023-04-01T06:39:48;11.40;;;8.40;;
39176;SDS011;24904;52.208;21.192;2023-04-01T06:45:13;13.20;;;8.60;;
39176;SDS011;24904;52.208;21.192;2023-04-01T06:50:48;12.60;;;9.80;;
39176;SDS011;24904;52.208;21.192;2023-04-01T06:56:30;12.90;;;9.70;;
39176;SDS011;24904;52.208;21.192;2023-04-01T07:01:44;19.10;;;11.60;;
39176;SDS011;24904;52.208;21.192;2023-04-01T07:06:52;16.40;;;11.60;;
39176;SDS011;24904;52.208;21.192;2023-04-01T07:11:59;17.90;;;13.90;;
39176;SDS011;24904;52.208;21.192;2023-04-01T07:17:33;22.30;;;15.30;;
39176;SDS011;24904;52.208;21.192;2023-04-01T07:22:41;20.70;;;14.40;;
39176;SDS011;24904;52.208;21.192;2023-04-01T07:27:59;19.90;;;15.10;;
39176;SDS011;24904;52.208;21.192;2023-04-01T07:33:07;19.30;;;13.30;;
39176;SDS011;24904;52.208;21.192;2023-04-01T07:38:20;17.70;;;13.10;;
39176;SDS011;24904;52.208;21.192;2023-04-01T07:43:46;15.70;;;11.90;;
39176;SDS011;24904;52.208;21.192;2023-04-01T07:49:03;14.80;;;12.20;;
39176;SDS011;24904;52.208;21.192;2023-04-01T07:54:11;15.70;;;12.10;;
39176;SDS011;24904;52.208;21.192;2023-04-01T07:59:24;17.10;;;13.00;;
39176;SDS011;24904;52.208;21.192;2023-04-01T08:04:46;21.80;;;14.80;;
39176;SDS011;24904;52.208;21.192;2023-04-01T08:10:00;20.10;;;16.20;;
39176;SDS011;24904;52.208;21.192;2023-04-01T08:15:31;21.80;;;17.00;;
39176;SDS011;24904;52.208;21.192;2023-04-01T08:20:50;20.90;;;15.70;;
39176;SDS011;24904;52.208;21.192;2023-04-01T08:25:58;18.80;;;15.40;;
39176;SDS011;24904;52.208;21.192;2023-04-01T08:31:10;19.90;;;14.40;;
39176;SDS011;24904;52.208;21.192;2023-04-01T08:36:20;27.30;;;17.00;;
39176;SDS011;24904;52.208;21.192;2023-04-01T08:47:31;19.30;;;15.40;;
39176;SDS011;24904;52.208;21.192;2023-04-01T08:53:00;17.10;;;13.80;;
39176;SDS011;24904;52.208;21.192;2023-04-01T09:09:47;13.50;;;9.00;;
39176;SDS011;24904;52.208;21.192;2023-04-01T09:20:46;13.70;;;9.10;;
39176;SDS011;24904;52.208;21.192;2023-04-01T09:26:02;14.30;;;10.90;;
39176;SDS011;24904;52.208;21.192;2023-04-01T09:31:31;12.70;;;10.20;;
39176;SDS011;24904;52.208;21.192;2023-04-01T09:37:19;12.50;;;10.10;;
39176;SDS011;24904;52.208;21.192;2023-04-01T09:42:35;13.00;;;10.00;;
39176;SDS011;24904;52.208;21.192;2023-04-01T09:48:00;15.50;;;9.10;;
39176;SDS011;24904;52.208;21.192;2023-04-01T09:53:17;9.40;;;7.10;;
39176;SDS011;24904;52.208;21.192;2023-04-01T09:58:33;8.10;;;5.30;;
39176;SDS011;24904;52.208;21.192;2023-04-01T10:04:15;10.10;;;7.60;;
39176;SDS011;24904;52.208;21.192;2023-04-01T10:26:20;5.80;;;4.90;;
39176;SDS011;24904;52.208;21.192;2023-04-01T10:32:13;4.70;;;3.50;;
39176;SDS011;24904;52.208;21.192;2023-04-01T10:43:43;3.40;;;2.50;;
39176;SDS011;24904;52.208;21.192;2023-04-01T10:49:10;3.90;;;3.00;;
39176;SDS011;24904;52.208;21.192;2023-04-01T10:54:48;9.50;;;3.70;;
39176;SDS011;24904;52.208;21.192;2023-04-01T11:00:26;6.90;;;4.80;;
39176;SDS011;24904;52.208;21.192;2023-04-01T11:11:25;9.50;;;4.80;;
39176;SDS011;24904;52.208;21.192;2023-04-01T11:34:00;7.90;;;4.40;;
39176;SDS011;24904;52.208;21.192;2023-04-01T11:39:17;6.60;;;4.40;;
39176;SDS011;24904;52.208;21.192;2023-04-01T11:44:39;8.30;;;4.80;;
39176;SDS011;24904;52.208;21.192;2023-04-01T11:55:33;6.20;;;4.70;;
39176;SDS011;24904;52.208;21.192;2023-04-01T12:00:54;5.40;;;3.60;;
39176;SDS011;24904;52.208;21.192;2023-04-01T12:06:05;7.80;;;4.40;;
39176;SDS011;24904;52.208;21.192;2023-04-01T12:11:17;5.80;;;3.80;;
39176;SDS011;24904;52.208;21.192;2023-04-01T12:16:31;5.50;;;4.10;;
39176;SDS011;24904;52.208;21.192;2023-04-01T12:21:48;5.50;;;4.30;;
39176;SDS011;24904;52.208;21.192;2023-04-01T12:27:08;6.30;;;4.40;;
39176;SDS011;24904;52.208;21.192;2023-04-01T12:32:23;6.50;;;4.70;;
39176;SDS011;24904;52.208;21.192;2023-04-01T12:37:39;7.90;;;5.40;;
39176;SDS011;24904;52.208;21.192;2023-04-01T12:48:38;7.00;;;5.80;;
39176;SDS011;24904;52.208;21.192;2023-04-01T12:54:11;7.20;;;5.10;;
39176;SDS011;24904;52.208;21.192;2023-04-01T12:59:46;9.20;;;5.90;;
39176;SDS011;24904;52.208;21.192;2023-04-01T13:05:18;5.20;;;3.80;;
39176;SDS011;24904;52.208;21.192;2023-04-01T13:10:41;5.30;;;2.70;;
39176;SDS011;24904;52.208;21.192;2023-04-01T13:15:59;3.40;;;2.10;;
39176;SDS011;24904;52.208;21.192;2023-04-01T13:21:11;5.20;;;2.30;;
39176;SDS011;24904;52.208;21.192;2023-04-01T13:26:27;2.70;;;1.80;;
39176;SDS011;24904;52.208;21.192;2023-04-01T13:31:44;2.70;;;1.80;;
39176;SDS011;24904;52.208;21.192;2023-04-01T13:37:13;4.80;;;1.60;;
39176;SDS011;24904;52.208;21.192;2023-04-01T13:42:28;2.90;;;1.70;;
39176;SDS011;24904;52.208;21.192;2023-04-01T13:57:12;3.30;;;1.80;;
39176;SDS011;24904;52.208;21.192;2023-04-01T14:02:38;2.90;;;2.00;;
39176;SDS011;24904;52.208;21.192;2023-04-01T14:07:58;3.80;;;2.20;;
39176;SDS011;24904;52.208;21.192;2023-04-01T14:13:12;3.30;;;1.50;;
39176;SDS011;24904;52.208;21.192;2023-04-01T14:18:27;3.20;;;1.80;;
39176;SDS011;24904;52.208;21.192;2023-04-01T14:23:48;2.60;;;1.90;;
39176;SDS011;24904;52.208;21.192;2023-04-01T14:36:48;2.80;;;1.80;;
39176;SDS011;24904;52.208;21.192;2023-04-01T14:42:06;5.00;;;2.40;;
39176;SDS011;24904;52.208;21.192;2023-04-01T14:47:36;3.50;;;2.60;;
39176;SDS011;24904;52.208;21.192;2023-04-01T14:52:57;4.20;;;2.60;;
39176;SDS011;24904;52.208;21.192;2023-04-01T14:58:17;4.80;;;3.10;;
39176;SDS011;24904;52.208;21.192;2023-04-01T15:03:28;3.90;;;2.80;;
39176;SDS011;24904;52.208;21.192;2023-04-01T15:08:36;3.30;;;2.10;;
39176;SDS011;24904;52.208;21.192;2023-04-01T15:14:10;2.80;;;1.90;;
39176;SDS011;24904;52.208;21.192;2023-04-01T15:19:31;3.80;;;2.30;;
39176;SDS011;24904;52.208;21.192;2023-04-01T15:25:00;6.20;;;2.10;;
39176;SDS011;24904;52.208;21.192;2023-04-01T15:30:29;3.80;;;2.40;;
39176;SDS011;24904;52.208;21.192;2023-04-01T15:35:42;4.00;;;2.50;;
39176;SDS011;24904;52.208;21.192;2023-04-01T15:40:54;4.20;;;2.50;;
39176;SDS011;24904;52.208;21.192;2023-04-01T15:46:12;9.50;;;3.50;;
39176;SDS011;24904;52.208;21.192;2023-04-01T15:51:47;13.10;;;3.00;;
39176;SDS011;24904;52.208;21.192;2023-04-01T15:57:04;4.90;;;3.30;;
39176;SDS011;24904;52.208;21.192;2023-04-01T16:02:20;4.40;;;2.50;;
39176;SDS011;24904;52.208;21.192;2023-04-01T16:13:10;4.10;;;2.70;;
39176;SDS011;24904;52.208;21.192;2023-04-01T16:18:42;4.90;;;2.70;;
39176;SDS011;24904;52.208;21.192;2023-04-01T16:24:02;3.40;;;1.90;;
39176;SDS011;24904;52.208;21.192;2023-04-01T16:29:19;4.40;;;1.70;;
39176;SDS011;24904;52.208;21.192;2023-04-01T16:34:36;2.30;;;1.20;;
39176;SDS011;24904;52.208;21.192;2023-04-01T16:39:47;3.60;;;1.80;;
39176;SDS011;24904;52.208;21.192;2023-04-01T16:45:14;2.20;;;1.40;;
39176;SDS011;24904;52.208;21.192;2023-04-01T16:50:24;3.10;;;1.60;;
39176;SDS011;24904;52.208;21.192;2023-04-01T16:55:47;3.50;;;1.60;;
39176;SDS011;24904;52.208;21.192;2023-04-01T17:00:58;3.70;;;2.30;;
39176;SDS011;24904;52.208;21.192;2023-04-01T17:11:38;6.50;;;2.50;;
39176;SDS011;24904;52.208;21.192;2023-04-01T17:16:55;4.40;;;2.40;;
39176;SDS011;24904;52.208;21.192;2023-04-01T17:22:20;3.90;;;2.40;;
39176;SDS011;24904;52.208;21.192;2023-04-01T17:27:37;4.90;;;2.10;;
39176;SDS011;24904;52.208;21.192;2023-04-01T17:32:56;2.80;;;1.70;;
39176;SDS011;24904;52.208;21.192;2023-04-01T17:38:18;3.10;;;2.10;;
39176;SDS011;24904;52.208;21.192;2023-04-01T17:43:42;4.40;;;2.30;;
39176;SDS011;24904;52.208;21.192;2023-04-01T17:48:54;3.80;;;2.50;;
39176;SDS011;24904;52.208;21.192;2023-04-01T17:54:15;5.50;;;2.90;;
39176;SDS011;24904;52.208;21.192;2023-04-01T17:59:31;4.60;;;2.70;;
39176;SDS011;24904;52.208;21.192;2023-04-01T18:04:43;7.10;;;3.30;;
39176;SDS011;24904;52.208;21.192;2023-04-01T18:10:03;6.30;;;3.20;;
39176;SDS011;24904;52.208;21.192;2023-04-01T18:15:21;5.00;;;3.30;;
39176;SDS011;24904;52.208;21.192;2023-04-01T18:20:39;6.30;;;3.60;;
39176;SDS011;24904;52.208;21.192;2023-04-01T18:25:55;10.20;;;3.90;;
39176;SDS011;24904;52.208;21.192;2023-04-01T18:31:11;5.80;;;3.60;;
39176;SDS011;24904;52.208;21.192;2023-04-01T18:36:21;7.90;;;4.60;;
39176;SDS011;24904;52.208;21.192;2023-04-01T18:41:39;8.00;;;3.40;;
39176;SDS011;24904;52.208;21.192;2023-04-01T18:46:52;5.70;;;3.40;;
39176;SDS011;24904;52.208;21.192;2023-04-01T18:52:07;6.80;;;3.80;;
39176;SDS011;24904;52.208;21.192;2023-04-01T18:57:19;6.20;;;3.70;;
39176;SDS011;24904;52.208;21.192;2023-04-01T19:02:27;7.00;;;4.50;;
39176;SDS011;24904;52.208;21.192;2023-04-01T19:07:41;10.10;;;8.00;;
39176;SDS011;24904;52.208;21.192;2023-04-01T19:12:51;13.00;;;9.90;;
39176;SDS011;24904;52.208;21.192;2023-04-01T19:18:14;16.90;;;13.70;;
39176;SDS011;24904;52.208;21.192;2023-04-01T19:29:21;18.00;;;11.20;;
39176;SDS011;24904;52.208;21.192;2023-04-01T19:34:40;11.70;;;8.00;;
39176;SDS011;24904;52.208;21.192;2023-04-01T19:39:54;10.10;;;7.60;;
39176;SDS011;24904;52.208;21.192;2023-04-01T19:45:14;8.50;;;6.50;;
39176;SDS011;24904;52.208;21.192;2023-04-01T19:50:34;8.50;;;5.90;;
39176;SDS011;24904;52.208;21.192;2023-04-01T19:55:46;8.60;;;5.80;;
39176;SDS011;24904;52.208;21.192;2023-04-01T20:00:58;8.70;;;5.90;;
39176;SDS011;24904;52.208;21.192;2023-04-01T20:06:08;7.30;;;4.90;;
39176;SDS011;24904;52.208;21.192;2023-04-01T20:11:25;9.70;;;5.30;;
39176;SDS011;24904;52.208;21.192;2023-04-01T20:16:50;8.20;;;5.50;;
39176;SDS011;24904;52.208;21.192;2023-04-01T20:22:02;7.80;;;5.80;;
39176;SDS011;24904;52.208;21.192;2023-04-01T20:27:20;8.10;;;5.60;;
39176;SDS011;24904;52.208;21.192;2023-04-01T20:32:36;8.70;;;5.80;;
39176;SDS011;24904;52.208;21.192;2023-04-01T20:37:57;9.20;;;5.50;;
39176;SDS011;24904;52.208;21.192;2023-04-01T20:49:10;6.40;;;5.10;;
39176;SDS011;24904;52.208;21.192;2023-04-01T20:54:48;8.60;;;5.40;;
39176;SDS011;24904;52.208;21.192;2023-04-01T21:00:20;6.70;;;4.60;;
39176;SDS011;24904;52.208;21.192;2023-04-01T21:05:40;6.50;;;4.40;;
39176;SDS011;24904;52.208;21.192;2023-04-01T21:11:03;6.90;;;4.50;;
39176;SDS011;24904;52.208;21.192;2023-04-01T21:16:22;6.70;;;4.20;;
39176;SDS011;24904;52.208;21.192;2023-04-01T21:21:49;6.00;;;3.40;;
39176;SDS011;24904;52.208;21.192;2023-04-01T21:27:09;4.60;;;3.20;;
39176;SDS011;24904;52.208;21.192;2023-04-01T21:32:27;6.70;;;3.40;;
39176;SDS011;24904;52.208;21.192;2023-04-01T21:37:46;4.90;;;3.40;;
39176;SDS011;24904;52.208;21.192;2023-04-01T21:43:03;6.10;;;3.80;;
39176;SDS011;24904;52.208;21.192;2023-04-01T21:48:25;5.50;;;3.60;;
39176;SDS011;24904;52.208;21.192;2023-04-01T21:53:55;5.30;;;3.40;;
39176;SDS011;24904;52.208;21.192;2023-04-01T22:05:12;6.30;;;3.70;;
39176;SDS011;24904;52.208;21.192;2023-04-01T22:10:25;5.80;;;3.80;;
39176;SDS011;24904;52.208;21.192;2023-04-01T22:15:48;5.90;;;3.40;;
39176;SDS011;24904;52.208;21.192;2023-04-01T22:21:05;7.80;;;4.20;;
39176;SDS011;24904;52.208;21.192;2023-04-01T22:26:17;5.60;;;3.90;;
39176;SDS011;24904;52.208;21.192;2023-04-01T22:31:29;4.90;;;3.30;;
39176;SDS011;24904;52.208;21.192;2023-04-01T22:36:42;6.40;;;3.50;;
39176;SDS011;24904;52.208;21.192;2023-04-01T22:42:01;6.70;;;3.90;;
39176;SDS011;24904;52.208;21.192;2023-04-01T22:47:18;7.20;;;4.10;;
39176;SDS011;24904;52.208;21.192;2023-04-01T22:52:32;9.60;;;4.00;;
39176;SDS011;24904;52.208;21.192;2023-04-01T22:57:44;7.00;;;4.40;;
39176;SDS011;24904;52.208;21.192;2023-04-01T23:03:03;7.50;;;4.60;;
39176;SDS011;24904;52.208;21.192;2023-04-01T23:14:02;7.00;;;4.30;;
39176;SDS011;24904;52.208;21.192;2023-04-01T23:19:21;7.50;;;5.50;;
39176;SDS011;24904;52.208;21.192;2023-04-01T23:24:35;8.30;;;5.00;;
39176;SDS011;24904;52.208;21.192;2023-04-01T23:29:49;6.90;;;4.50;;
39176;SDS011;24904;52.208;21.192;2023-04-01T23:34:55;8.10;;;4.80;;
39176;SDS011;24904;52.208;21.192;2023-04-01T23:40:02;7.50;;;5.00;;
39176;SDS011;24904;52.208;21.192;2023-04-01T23:45:15;7.90;;;5.30;;
39176;SDS011;24904;52.208;21.192;2023-04-01T23:50:23;8.10;;;5.20;;
39176;SDS011;24904;52.208;21.192;2023-04-01T23:55:30;8.80;;;5.80;;
